Kezdőlap
METAR-TAF:

METAR-TAF

Repülőterek :

Niamey, Niger

Diori Hamani nemzetközi repülőtér

földrajzi szélesség: 13-29N, földrajzi hosszúság: 002-10E, magasság: 223 m

Jelenlegi meteorológiai megfigyelések

A jelentés 57 perccel ezelõtt készült, 18:00 UTC
Különbözõ irányokból fújó szél 3 kt
Hőmérséklet 40°C
Páratartalom 17%
Légköri nyomás 1006 hPa
Látótávolság: 8000 m
Kevés felhő 3000 lábon, Tornyos gomolyfelhő.

METAR: DRRN 261800Z VRB03KT 8000 FEW030TCU 40/10 Q1006 TEMPO TS

Idő: 19:57 (18:57 UTC)

Előrejelzés

A jelentés 7 órával és 57 perccel ezelõtt készült, 11:00 UTC
Az előrejelzés 26-én 12 óra UTC és 27-én 18 óra UTC között érvényes
Nyugat-délnyugati szél 10 kt
Látótávolság: 8000 m
Valószínűség 40%
26-én 15 óra UTC és 26-én 20 óra UTC között
Látótávolság: 1200 m
Kevés felhő 4500 lábon, Cumulonimbus.
porvihar, zivatar

TAF: DRRN 261100Z 2612/2718 24010KT 8000 NSC PROB40 2615/2620 VBR20G30KT 1200 BLDU TS FEW045CB

Meteorológiai megfigyelések és előrejelzések több, mint 4000 repülőtéren (METAR és TAF jelentéseket).

A térképen piros és sárga pontok jelzik az elérhető meteorológiai állomásokat.

Mozgassa az egeret a pont fölött, hogy megjelenjen az állomás neve.

Azután kattintson az időjárási megfigyelések és előrejelzések megtekintéséhez.

A térkép megváltoztatása: kattintson a fekete keresztel jelölt zöld gombra ráközelítéshez, a vonallal jelölt zöld gombra távolításhoz, vagy a zöld nyilakra a szomszédos térképek eléréséhez.


METAR-TAF: